Trabzon — 9HA2783 — position and weather

sailwx.info

Track history (hours):
 
Tides and Currents Weather Stations Pressure Air Temp Water Temp Dewpoint Dewpoint Depression Visibility Wind Speed Wind Dir Waves Ship Positions

Trabzon

Last reported at 2017-Mar-20 14:33 UTC. Time now 2017-Mar-26 07:28 UTC.
Position N 22°58' E 119°43'.

Length 229 m; draft 13.3 m.

Type: Cargo ship. MMSI: 215679000.

Date/timePositionNaut miles runAvg speedWind from/ knotsBaromVisibWave heightAir tempDewpointWater temp
2017-Mar-20 14:33N 22°58' E 119°43'  
2017-Mar-15 16:11N 01°16' E 104°02'4 5.6
2017-Mar-15 15:32N 01°17' E 103°58'0 0.1
2017-Mar-15 14:29N 01°17' E 103°58'0 0.0
2017-Mar-15 13:26N 01°17' E 103°58'0 0.1
2017-Mar-15 11:26N 01°17' E 103°58'0 0.1
2017-Mar-15 10:29N 01°17' E 103°58'0 0.0
2017-Mar-15 09:32N 01°17' E 103°58'0 0.0
2017-Mar-15 08:26N 01°17' E 103°58'0 0.1
2017-Mar-15 07:32N 01°17' E 103°58'0 0.1
2017-Mar-15 06:23N 01°17' E 103°58'0 0.0
2017-Mar-15 05:26N 01°17' E 103°58'0 0.0
2017-Mar-15 04:32N 01°17' E 103°58'0 0.0
2017-Mar-15 02:32N 01°17' E 103°58'0 0.0
2017-Mar-15 01:29N 01°17' E 103°58'0 0.1
2017-Mar-15 00:26N 01°17' E 103°58'0 0.2
2017-Mar-14 23:33N 01°17' E 103°59'2 2.1
2017-Mar-14 22:33N 01°15' E 103°57'4 3.8
2017-Mar-14 21:32N 01°13' E 103°54'5 4.7
2017-Mar-14 20:33N 01°11' E 103°50'6 5.9
2017-Mar-14 19:33N 01°07' E 103°45'7 7.1
2017-Mar-14 18:33N 01°03' E 103°40'4 4.3
2017-Mar-14 17:33N 01°04' E 103°36'7 7.1
2017-Mar-14 16:31N 01°08' E 103°30'8313.7
2017-Mar-14 10:25N 01°52' E 102°18'  
Track history (hours):
 
Tides and Currents Weather Stations Pressure Air Temp Water Temp Dewpoint Dewpoint Depression Visibility Wind Speed Wind Dir Waves Ship Positions

Trabzon

Last reported at 2017-Mar-20 14:33 UTC. Time now 2017-Mar-26 07:28 UTC.
Position N 22°58' E 119°43'.

Length 229 m; draft 13.3 m.

Type: Cargo ship. MMSI: 215679000.

Date/timePositionNaut miles runAvg speedWind from/ knotsBaromVisibWave heightAir tempDewpointWater temp
2017-Mar-20 14:33N 22°58' E 119°43'  
2017-Mar-15 16:11N 01°16' E 104°02'4 5.6
2017-Mar-15 15:32N 01°17' E 103°58'0 0.1
2017-Mar-15 14:29N 01°17' E 103°58'0 0.0
2017-Mar-15 13:26N 01°17' E 103°58'0 0.1
2017-Mar-15 11:26N 01°17' E 103°58'0 0.1
2017-Mar-15 10:29N 01°17' E 103°58'0 0.0
2017-Mar-15 09:32N 01°17' E 103°58'0 0.0
2017-Mar-15 08:26N 01°17' E 103°58'0 0.1
2017-Mar-15 07:32N 01°17' E 103°58'0 0.1
2017-Mar-15 06:23N 01°17' E 103°58'0 0.0
2017-Mar-15 05:26N 01°17' E 103°58'0 0.0
2017-Mar-15 04:32N 01°17' E 103°58'0 0.0
2017-Mar-15 02:32N 01°17' E 103°58'0 0.0
2017-Mar-15 01:29N 01°17' E 103°58'0 0.1
2017-Mar-15 00:26N 01°17' E 103°58'0 0.2
2017-Mar-14 23:33N 01°17' E 103°59'2 2.1
2017-Mar-14 22:33N 01°15' E 103°57'4 3.8
2017-Mar-14 21:32N 01°13' E 103°54'5 4.7
2017-Mar-14 20:33N 01°11' E 103°50'6 5.9
2017-Mar-14 19:33N 01°07' E 103°45'7 7.1
2017-Mar-14 18:33N 01°03' E 103°40'4 4.3
2017-Mar-14 17:33N 01°04' E 103°36'7 7.1
2017-Mar-14 16:31N 01°08' E 103°30'8313.7
2017-Mar-14 10:25N 01°52' E 102°18'  

Dump ship's entire track history